createdAt,value
2018-09-01T00:00:42.938Z,90.82
2018-09-01T00:01:43.217Z,90.82
2018-09-01T00:02:43.238Z,90.73
2018-09-01T00:03:43.261Z,90.82
2018-09-01T00:04:43.288Z,90.73
2018-09-01T00:05:43.312Z,90.44
2018-09-01T00:06:43.337Z,90.53
2018-09-01T00:07:43.349Z,90.25
2018-09-01T00:08:43.378Z,90.82
2018-09-01T00:09:43.391Z,90.63
2018-09-01T00:10:43.413Z,90.34
2018-09-01T00:11:43.440Z,90.82
2018-09-01T00:12:43.455Z,91.3
2018-09-01T00:13:58.140Z,91.02
2018-09-01T00:14:43.241Z,91.39
2018-09-01T00:15:43.525Z,91.59
2018-09-01T00:16:43.542Z,91.97
2018-09-01T00:17:43.567Z,91.88
2018-09-01T00:18:43.596Z,91.54
2018-09-01T00:19:43.608Z,92.02
2018-09-01T00:20:43.373Z,91.83
2018-09-01T00:21:43.651Z,92.21
2018-09-01T00:22:43.674Z,92.3
2018-09-01T00:23:43.438Z,92.3
2018-09-01T00:24:43.725Z,92.74
2018-09-01T00:25:43.740Z,92.69
2018-09-01T00:26:43.505Z,92.97
2018-09-01T00:27:43.783Z,93.45
2018-09-01T00:28:58.468Z,93.26
2018-09-01T00:29:43.834Z,93.93
2018-09-01T00:30:44.137Z,93.26
2018-09-01T00:31:43.875Z,92.88
2018-09-01T00:32:43.896Z,92.25
2018-09-01T00:33:43.916Z,92.16
2018-09-01T00:34:43.679Z,91.97
2018-09-01T00:35:43.961Z,91.97
2018-09-01T00:36:43.985Z,92.16
2018-09-01T00:37:44.005Z,92.25
2018-09-01T00:38:44.026Z,92.35
2018-09-01T00:39:43.894Z,93.07
2018-09-01T00:40:44.067Z,93.31
2018-09-01T00:41:44.090Z,92.88
2018-09-01T00:42:44.112Z,92.83
2018-09-01T00:43:44.136Z,92.83
2018-09-01T00:44:44.156Z,92.83
2018-09-01T00:45:44.178Z,92.25
2018-09-01T00:46:44.196Z,93.02
2018-09-01T00:47:43.974Z,93.21
2018-09-01T00:48:44.246Z,92.88
2018-09-01T00:49:44.265Z,93.07
2018-09-01T00:50:44.387Z,93.16
2018-09-01T00:51:44.309Z,92.5
2018-09-01T00:52:44.072Z,92.5
2018-09-01T00:53:44.352Z,92.88
2018-09-01T00:54:44.374Z,92.3
2018-09-01T00:55:44.402Z,92.25
2018-09-01T00:56:44.413Z,92.74
2018-09-01T00:57:44.453Z,93.69
2018-09-01T00:58:44.461Z,93.16
2018-09-01T00:59:44.482Z,93.93
2018-09-01T01:00:59.164Z,94.12
2018-09-01T01:01:44.528Z,94.12
2018-09-01T01:02:44.290Z,93.93
2018-09-01T01:03:44.566Z,94.02
2018-09-01T01:04:44.594Z,93.84
2018-09-01T01:05:44.357Z,94.41
2018-09-01T01:06:44.635Z,94.41
2018-09-01T01:07:44.659Z,94.98
2018-09-01T01:08:44.685Z,94.51
2018-09-01T01:09:44.699Z,94.41
2018-09-01T01:10:44.718Z,94.41
2018-09-01T01:11:44.742Z,94.51
2018-09-01T01:12:44.511Z,94.79
2018-09-01T01:13:44.786Z,94.89
2018-09-01T01:14:44.808Z,94.98
2018-09-01T01:15:44.829Z,94.31
2018-09-01T01:16:59.514Z,94.02
2018-09-01T01:17:44.873Z,93.74
2018-09-01T01:18:44.636Z,94.12
2018-09-01T01:19:44.917Z,94.02
2018-09-01T01:20:44.938Z,94.51
2018-09-01T01:21:44.960Z,94.7
2018-09-01T01:22:44.983Z,93.93
2018-09-01T01:23:45.005Z,94.07
2018-09-01T01:24:45.047Z,94.12
2018-09-01T01:26:45.075Z,93.93
2018-09-01T01:27:45.091Z,93.55
2018-09-01T01:28:45.128Z,93.65
2018-09-01T01:29:45.140Z,93.36
2018-09-01T01:30:45.154Z,92.88
2018-09-01T01:31:45.177Z,93.21
2018-09-01T01:32:59.861Z,92.93
2018-09-01T01:33:45.226Z,93.02
2018-09-01T01:34:45.243Z,92.93
2018-09-01T01:35:45.270Z,92.54
2018-09-01T01:36:45.286Z,92.54
2018-09-01T01:37:45.310Z,92.64
2018-09-01T01:38:45.329Z,91.97
2018-09-01T01:39:45.351Z,91.97
2018-09-01T01:40:45.371Z,91.74
2018-09-01T01:42:45.419Z,90.92
2018-09-01T01:43:45.441Z,90.25
2018-09-01T01:44:45.203Z,90.39
2018-09-01T01:45:45.482Z,89.82
2018-09-01T01:46:45.504Z,89.15
2018-09-01T01:47:45.525Z,89.87
2018-09-01T01:49:00.208Z,89.87
2018-09-01T01:49:45.943Z,89.87
2018-09-01T01:50:45.601Z,90.78
2018-09-01T01:51:45.354Z,90.68
2018-09-01T01:52:45.637Z,90.3
2018-09-01T01:53:45.656Z,90.68
2018-09-01T01:54:45.685Z,90.59
2018-09-01T01:55:45.697Z,90.78
2018-09-01T01:56:45.721Z,90.59
2018-09-01T01:57:45.486Z,90.88
2018-09-01T01:58:45.513Z,92.3
2018-09-01T01:59:45.789Z,92.79
2018-09-01T02:00:45.811Z,93.02
2018-09-01T02:01:45.828Z,93.93
2018-09-01T02:02:45.849Z,93.55
2018-09-01T02:04:00.534Z,94.17
2018-09-01T02:04:45.895Z,94.07
2018-09-01T02:05:45.919Z,94.36
2018-09-01T02:06:45.940Z,94.84
2018-09-01T02:07:45.958Z,94.84
2018-09-01T02:08:45.986Z,94.65
2018-09-01T02:09:45.999Z,94.74
2018-09-01T02:11:46.045Z,94.46
2018-09-01T02:13:46.095Z,94.84
2018-09-01T02:14:46.116Z,94.93
2018-09-01T02:15:46.132Z,94.84
2018-09-01T02:16:46.155Z,94.84
2018-09-01T02:17:46.181Z,94.84
2018-09-01T02:18:46.195Z,94.46
2018-09-01T02:19:46.222Z,94.27
2018-09-01T02:20:46.234Z,95.03
2018-09-01T02:21:46.266Z,95.32
2018-09-01T02:22:46.301Z,95.51
2018-09-01T02:23:46.307Z,95.75
2018-09-01T02:24:46.325Z,96.37
2018-09-01T02:25:46.345Z,96.13
2018-09-01T02:26:46.386Z,95.98
2018-09-01T02:27:46.390Z,95.84
2018-09-01T02:28:46.152Z,95.75
2018-09-01T02:29:46.441Z,95.27
2018-09-01T02:30:46.463Z,95.27
2018-09-01T02:31:46.477Z,95.84
2018-09-01T02:32:46.495Z,96.42
2018-09-01T02:33:46.515Z,96.13
2018-09-01T02:34:46.541Z,96.51
2018-09-01T02:36:01.221Z,96.51
2018-09-01T02:36:46.324Z,96.7
2018-09-01T02:37:46.604Z,96.61
2018-09-01T02:38:46.624Z,97.08
2018-09-01T02:39:46.648Z,96.42
2018-09-01T02:40:46.668Z,96.7
2018-09-01T02:41:46.688Z,97.27
2018-09-01T02:42:46.452Z,97.47
2018-09-01T02:43:46.731Z,96.89
2018-09-01T02:44:46.754Z,97.37
2018-09-01T02:45:46.774Z,97.37
2018-09-01T02:46:46.796Z,96.89
2018-09-01T02:47:46.816Z,97.37
2018-09-01T02:48:46.838Z,98.03
2018-09-01T02:49:46.859Z,98.03
2018-09-01T02:50:46.877Z,98.71
2018-09-01T02:52:01.561Z,98.8
2018-09-01T02:52:46.923Z,98.71
2018-09-01T02:53:46.685Z,98.8
2018-09-01T02:54:46.962Z,98.52
2018-09-01T02:55:46.985Z,99.28
2018-09-01T02:56:47.014Z,98.99
2018-09-01T02:57:47.028Z,99.32
2018-09-01T02:58:47.051Z,99.08
2018-09-01T02:59:47.073Z,99.28
2018-09-01T03:00:47.091Z,99.28
2018-09-01T03:02:47.134Z,99.13
2018-09-01T03:03:47.153Z,99.61
2018-09-01T03:04:47.180Z,99.13
2018-09-01T03:05:46.943Z,99.9
2018-09-01T03:06:47.219Z,99.99
2018-09-01T03:08:01.900Z,99.99
2018-09-01T03:08:47.260Z,99.99
2018-09-01T03:09:47.282Z,99.99
2018-09-01T03:10:47.303Z,99.99
2018-09-01T03:11:47.324Z,99.99
2018-09-01T03:12:47.343Z,99.99
2018-09-01T03:13:47.108Z,99.99
2018-09-01T03:14:47.387Z,99.99
2018-09-01T03:15:47.153Z,99.99
2018-09-01T03:17:47.472Z,99.99
2018-09-01T03:18:47.474Z,99.99
2018-09-01T03:19:47.492Z,99.99
2018-09-01T03:20:47.515Z,99.99
2018-09-01T03:21:47.539Z,99.99
2018-09-01T03:22:47.561Z,99.99
2018-09-01T03:24:02.236Z,99.99
2018-09-01T03:24:47.341Z,99.99
2018-09-01T03:25:47.621Z,99.99
2018-09-01T03:26:47.637Z,99.99
2018-09-01T03:27:47.660Z,99.99
2018-09-01T03:28:47.697Z,99.99
2018-09-01T03:29:47.751Z,99.99
2018-09-01T03:30:47.761Z,99.99
2018-09-01T03:31:47.844Z,99.99
2018-09-01T03:32:47.772Z,99.99
2018-09-01T03:33:47.793Z,99.99
2018-09-01T03:34:47.815Z,99.99
2018-09-01T03:35:47.828Z,99.99
2018-09-01T03:36:47.911Z,99.99
2018-09-01T03:37:47.876Z,99.99
2018-09-01T03:39:02.554Z,99.99
2018-09-01T03:39:47.914Z,99.99
2018-09-01T03:40:47.936Z,99.99
2018-09-01T03:41:47.958Z,99.99
2018-09-01T03:42:47.977Z,99.99
2018-09-01T03:44:48.017Z,99.99
2018-09-01T03:45:47.783Z,99.99
2018-09-01T03:46:48.059Z,99.99
2018-09-01T03:47:48.082Z,99.99
2018-09-01T03:48:48.105Z,99.99
2018-09-01T03:49:48.224Z,99.99
2018-09-01T03:50:48.152Z,99.99
2018-09-01T03:51:47.910Z,99.99
2018-09-01T03:52:48.184Z,99.99
2018-09-01T03:53:48.211Z,99.99
2018-09-01T03:55:47.990Z,99.99
2018-09-01T03:56:48.011Z,99.99
2018-09-01T03:57:48.290Z,99.99
2018-09-01T03:58:48.311Z,99.99
2018-09-01T03:59:48.337Z,99.99
2018-09-01T04:00:48.352Z,99.99
2018-09-01T04:01:48.117Z,99.99
2018-09-01T04:02:48.409Z,99.99
2018-09-01T04:04:48.437Z,99.99
2018-09-01T04:06:48.475Z,99.99
2018-09-01T04:07:48.503Z,99.99
2018-09-01T04:08:48.520Z,99.99
2018-09-01T04:09:48.539Z,99.99
2018-09-01T04:11:03.221Z,99.99
2018-09-01T04:11:48.323Z,99.99
2018-09-01T04:12:48.603Z,99.99
2018-09-01T04:14:48.644Z,99.99
2018-09-01T04:15:48.663Z,99.99
2018-09-01T04:16:48.686Z,99.99
2018-09-01T04:18:48.724Z,99.99
2018-09-01T04:19:48.746Z,99.99
2018-09-01T04:20:48.766Z,99.99
2018-09-01T04:21:48.789Z,99.99
2018-09-01T04:22:48.912Z,99.99
2018-09-01T04:23:48.574Z,99.99
2018-09-01T04:24:48.854Z,99.99
2018-09-01T04:25:48.875Z,99.99
2018-09-01T04:27:03.558Z,99.99
2018-09-01T04:27:48.655Z,99.99
2018-09-01T04:28:48.935Z,99.99
2018-09-01T04:29:48.955Z,99.99
2018-09-01T04:30:48.973Z,99.99
2018-09-01T04:31:49.028Z,99.99
2018-09-01T04:33:49.042Z,99.99
2018-09-01T04:35:49.078Z,99.99
2018-09-01T04:36:49.109Z,99.99
2018-09-01T04:37:49.132Z,99.99
2018-09-01T04:38:49.142Z,99.99
2018-09-01T04:39:49.162Z,99.99
2018-09-01T04:40:49.186Z,99.99
2018-09-01T04:41:49.204Z,99.99
2018-09-01T04:43:03.887Z,99.99
2018-09-01T04:43:48.995Z,99.99
2018-09-01T04:44:49.008Z,99.99
2018-09-01T04:45:49.037Z,99.99
2018-09-01T04:46:49.309Z,99.99
2018-09-01T04:47:49.333Z,99.99
2018-09-01T04:48:49.093Z,99.99
2018-09-01T04:49:49.375Z,99.99
2018-09-01T04:50:49.393Z,99.99
2018-09-01T04:51:49.418Z,99.99
2018-09-01T04:52:49.434Z,99.99
2018-09-01T04:54:49.225Z,99.99
2018-09-01T04:55:49.495Z,99.99
2018-09-01T04:56:49.518Z,99.99
2018-09-01T04:57:49.541Z,99.99
2018-09-01T04:59:04.222Z,99.99
2018-09-01T04:59:49.589Z,99.99
2018-09-01T05:00:49.731Z,99.99
2018-09-01T05:01:49.635Z,99.99
2018-09-01T05:02:49.649Z,99.57
2018-09-01T05:03:49.670Z,99.76
2018-09-01T05:04:49.692Z,99.85
2018-09-01T05:05:49.712Z,99.66
2018-09-01T05:06:49.483Z,99.76
2018-09-01T05:09:49.804Z,97.66
2018-09-01T05:10:49.823Z,97.23
2018-09-01T05:11:49.586Z,96.94
2018-09-01T05:12:49.866Z,97.28
2018-09-01T05:14:04.549Z,96.89
2018-09-01T05:14:49.912Z,97.13
2018-09-01T05:15:49.685Z,97.28
2018-09-01T05:16:50.053Z,97.37
2018-09-01T05:17:50.003Z,97.66
2018-09-01T05:18:49.741Z,98.33
2018-09-01T05:19:50.019Z,98.33
2018-09-01T05:20:50.041Z,98.13
2018-09-01T05:21:50.067Z,98.18
2018-09-01T05:22:50.085Z,97.9
2018-09-01T05:23:50.225Z,97.8
2018-09-01T05:24:50.132Z,97.13
2018-09-01T05:25:50.152Z,97.04
2018-09-01T05:26:50.172Z,96.94
2018-09-01T05:27:49.942Z,96.37
2018-09-01T05:28:50.216Z,96.75
2018-09-01T05:29:49.990Z,96.47
2018-09-01T05:30:50.264Z,96.27
2018-09-01T05:31:50.285Z,96.37
2018-09-01T05:32:50.307Z,96.27
2018-09-01T05:33:50.327Z,95.7
2018-09-01T05:34:50.353Z,95.51
2018-09-01T05:35:50.373Z,96.37
2018-09-01T05:36:50.139Z,96.18
2018-09-01T05:37:50.419Z,95.17
2018-09-01T05:41:50.508Z,92.06
2018-09-01T05:42:50.536Z,91.49
2018-09-01T05:43:50.686Z,91.68
2018-09-01T05:44:50.578Z,91.68
2018-09-01T05:46:05.263Z,92.16
2018-09-01T05:46:50.626Z,91.77
2018-09-01T05:47:50.646Z,91.77
2018-09-01T05:48:50.669Z,92.35
2018-09-01T05:49:50.695Z,91.87
2018-09-01T05:50:50.941Z,91.68
2018-09-01T05:51:50.743Z,91.77
2018-09-01T05:52:50.760Z,91.63
2018-09-01T05:53:50.787Z,91.15
2018-09-01T05:54:50.811Z,90.67
2018-09-01T05:55:50.572Z,88.99
2018-09-01T05:56:50.598Z,87.27
2018-09-01T05:57:50.877Z,85.53
2018-09-01T05:58:50.643Z,84.38
2018-09-01T05:59:50.666Z,84.04
2018-09-01T06:00:50.948Z,82.98
2018-09-01T06:02:05.634Z,81.1
2018-09-01T06:02:51.008Z,81.2
2018-09-01T06:03:51.021Z,80.19
2018-09-01T06:04:51.048Z,79.03
2018-09-01T06:05:51.139Z,79.32
2018-09-01T06:06:50.840Z,78.27
2018-09-01T06:07:51.124Z,77.25
2018-09-01T06:08:51.151Z,76.96
2018-09-01T06:09:51.177Z,76.19
2018-09-01T06:12:51.253Z,74.15
2018-09-01T06:13:51.024Z,74.05
2018-09-01T06:14:51.311Z,73.67
2018-09-01T06:15:51.335Z,73.03
2018-09-01T06:16:51.406Z,73.22
2018-09-01T06:18:06.055Z,73.71
2018-09-01T06:18:51.159Z,72.84
2018-09-01T06:19:51.186Z,72.07
2018-09-01T06:20:51.475Z,71.53
2018-09-01T06:21:51.500Z,70.76
2018-09-01T06:22:51.273Z,70.56
2018-09-01T06:23:51.692Z,69.35
2018-09-01T06:24:51.709Z,68.04
2018-09-01T06:25:51.357Z,67.4
2018-09-01T06:26:51.388Z,66.56
2018-09-01T06:27:51.679Z,65.78
2018-09-01T06:29:51.476Z,65.05
2018-09-01T06:30:51.505Z,64.18
2018-09-01T06:31:51.792Z,63.73
2018-09-01T06:32:51.909Z,63.53
2018-09-01T06:34:06.516Z,64.21
2018-09-01T06:34:51.625Z,64.76
2018-09-01T06:35:51.938Z,65.4
2018-09-01T06:36:51.941Z,65.43
2018-09-01T06:37:52.005Z,64.92
2018-09-01T06:38:52.006Z,65.14
2018-09-01T06:39:52.031Z,64.86
2018-09-01T06:40:52.061Z,64.47
2018-09-01T06:41:51.834Z,63.6
2018-09-01T06:42:52.154Z,63.31
2018-09-01T06:43:51.894Z,62.86
2018-09-01T06:44:52.184Z,62.21
2018-09-01T06:45:51.954Z,61.05
2018-09-01T06:46:52.244Z,61.08
2018-09-01T06:47:52.309Z,62.12
2018-09-01T06:49:06.973Z,62.31
2018-09-01T06:49:52.078Z,61.54
2018-09-01T06:50:52.373Z,62.24
2018-09-01T06:51:52.399Z,61.54
2018-09-01T06:52:52.428Z,62.31
2018-09-01T06:54:52.493Z,63.63
2018-09-01T06:55:52.617Z,63.79
2018-09-01T06:56:52.549Z,63.98
2018-09-01T06:57:52.679Z,63.82
2018-09-01T06:58:52.606Z,62.95
2018-09-01T06:59:52.377Z,62.21
2018-09-01T07:00:52.667Z,61.47
2018-09-01T07:01:52.699Z,61.27
2018-09-01T07:02:52.731Z,61.18
2018-09-01T07:03:52.757Z,61.08
2018-09-01T07:04:52.793Z,60.24
2018-09-01T07:05:52.818Z,59.31
2018-09-01T07:06:52.851Z,59.79
2018-09-01T07:07:52.883Z,60.02
2018-09-01T07:08:53.145Z,59.83
2018-09-01T07:09:52.687Z,59.76
2018-09-01T07:10:52.980Z,59.86
2018-09-01T07:11:53.012Z,59.31
2018-09-01T07:12:53.049Z,58.82
2018-09-01T07:13:53.073Z,58.04
2018-09-01T07:14:53.108Z,57.98
2018-09-01T07:16:52.909Z,57.98
2018-09-01T07:17:53.201Z,56.46
2018-09-01T07:18:53.232Z,56.85
2018-09-01T07:19:53.263Z,56.56
2018-09-01T07:21:07.959Z,57.98
2018-09-01T07:21:53.069Z,58.53
2018-09-01T07:22:53.358Z,59.4
2018-09-01T07:23:53.391Z,59.38
2018-09-01T07:24:53.428Z,58.72
2018-09-01T07:25:53.456Z,58.34
2018-09-01T07:26:53.488Z,57.69
2018-09-01T07:27:53.525Z,56.94
2018-09-01T07:28:53.550Z,55.22
2018-09-01T07:29:53.584Z,54.77
2018-09-01T07:30:54.307Z,54.67
2018-09-01T07:31:53.650Z,55.16
2018-09-01T07:32:53.424Z,55.81
2018-09-01T07:33:53.716Z,56.94
2018-09-01T07:34:53.746Z,55.49
2018-09-01T07:35:53.780Z,55.13
2018-09-01T07:37:08.475Z,55.06
2018-09-01T07:37:53.855Z,55.26
2018-09-01T07:38:53.877Z,55.35
2018-09-01T07:39:53.911Z,55.62
2018-09-01T07:40:53.941Z,56.94
2018-09-01T07:41:53.716Z,57.71
2018-09-01T07:42:54.010Z,58.82
2018-09-01T07:43:54.038Z,58.63
2018-09-01T07:44:54.083Z,59.11
2018-09-01T07:45:54.101Z,59.4
2018-09-01T07:47:53.908Z,57.62
2018-09-01T07:48:53.941Z,56.36
2018-09-01T07:49:54.271Z,57.62
2018-09-01T07:50:54.269Z,58.44
2018-09-01T07:51:54.037Z,57.5
2018-09-01T07:53:08.987Z,55.78
2018-09-01T07:53:54.100Z,54.96
2018-09-01T07:54:54.397Z,54.99
2018-09-01T07:55:54.219Z,54.21
2018-09-01T07:56:54.453Z,53.08
2018-09-01T07:57:54.485Z,53.37
2018-09-01T07:58:54.519Z,53.37
2018-09-01T07:59:54.569Z,54.48
2018-09-01T08:00:54.636Z,55.06
2018-09-01T08:01:54.636Z,54.58
2018-09-01T08:02:54.649Z,54.96
2018-09-01T08:04:54.714Z,54.94
2018-09-01T08:05:54.746Z,53.92
2018-09-01T08:06:54.783Z,53.44
2018-09-01T08:07:54.815Z,52.98
2018-09-01T08:09:09.509Z,53.47
2018-09-01T08:09:54.880Z,53.44
2018-09-01T08:10:54.911Z,52.98
2018-09-01T08:11:54.686Z,52.23
2018-09-01T08:12:54.975Z,52.23
2018-09-01T08:13:55.286Z,51.84
2018-09-01T08:14:55.041Z,50.89
2018-09-01T08:15:55.073Z,50.89
2018-09-01T08:16:55.111Z,50.41
2018-09-01T08:17:55.140Z,50.31
2018-09-01T08:18:55.171Z,50.53
2018-09-01T08:19:55.204Z,50.12
2018-09-01T08:20:55.239Z,50.14
2018-09-01T08:21:55.272Z,50.73
2018-09-01T08:24:10.001Z,49.85
2018-09-01T08:24:55.114Z,49.85
2018-09-01T08:26:55.438Z,51.91
2018-09-01T08:27:55.469Z,51.72
2018-09-01T08:28:55.500Z,51.06
2018-09-01T08:29:55.277Z,51.06
2018-09-01T08:30:55.566Z,51.23
2018-09-01T08:32:55.632Z,50.68
2018-09-01T08:33:55.766Z,51.26
2018-09-01T08:34:55.700Z,52.2
2018-09-01T08:35:55.731Z,52.37
2018-09-01T08:36:55.772Z,52.11
2018-09-01T08:37:55.798Z,52.01
2018-09-01T08:38:55.829Z,50.77
2018-09-01T08:39:55.604Z,50.77
2018-09-01T08:40:55.893Z,50.48
2018-09-01T08:41:55.925Z,50.12
2018-09-01T08:42:55.958Z,50.77
2018-09-01T08:43:55.732Z,51.72
2018-09-01T08:44:56.024Z,51.53
2018-09-01T08:45:56.058Z,50.84
2018-09-01T08:46:56.091Z,50.58
2018-09-01T08:47:56.129Z,49.82
2018-09-01T08:49:56.186Z,51.23
2018-09-01T08:50:56.217Z,50.62
2018-09-01T08:51:56.249Z,50.09
2018-09-01T08:52:56.282Z,50.68
2018-09-01T08:53:56.313Z,49.71
2018-09-01T08:54:56.090Z,49.22
2018-09-01T08:56:11.044Z,49.32
2018-09-01T08:56:56.416Z,49.8
2018-09-01T08:57:56.443Z,48.83
2018-09-01T08:58:56.477Z,49.73
2018-09-01T08:59:56.513Z,50.19
2018-09-01T09:00:56.541Z,51.23
2018-09-01T09:01:56.572Z,53.12
2018-09-01T09:02:56.610Z,52.51
2018-09-01T09:03:56.640Z,51.89
2018-09-01T09:05:56.705Z,49.34
2018-09-01T09:06:56.732Z,49.07
2018-09-01T09:07:56.763Z,47.91
2018-09-01T09:08:56.801Z,48.3
2018-09-01T09:09:56.834Z,49.15
2018-09-01T09:10:56.856Z,49.12
2018-09-01T09:12:11.552Z,49.32
2018-09-01T09:12:56.924Z,48.95
2018-09-01T09:13:56.988Z,47.03
2018-09-01T09:14:56.982Z,46.4
2018-09-01T09:15:57.012Z,46.01
2018-09-01T09:17:57.077Z,43.81
2018-09-01T09:18:57.177Z,45.86
2018-09-01T09:19:57.143Z,47.64
2018-09-01T09:20:57.171Z,47.23
2018-09-01T09:22:57.236Z,47.42
2018-09-01T09:23:57.267Z,48.75
2018-09-01T09:24:57.298Z,48.73
2018-09-01T09:25:57.330Z,50.26
2018-09-01T09:26:57.104Z,50.62
2018-09-01T09:28:12.061Z,50.89
2018-09-01T09:28:57.429Z,51.57
2018-09-01T09:29:57.454Z,51.28
2018-09-01T09:30:57.486Z,51.84
2018-09-01T09:31:57.257Z,52.49
2018-09-01T09:32:57.546Z,52.49
2018-09-01T09:33:57.579Z,51.98
2018-09-01T09:34:57.614Z,51.64
2018-09-01T09:36:57.666Z,50.53
2018-09-01T09:37:57.700Z,48.44
2018-09-01T09:38:57.726Z,47.98
2018-09-01T09:39:57.754Z,48.44
2018-09-01T09:40:57.785Z,47.98
2018-09-01T09:41:58.050Z,46.94
2018-09-01T09:42:57.847Z,45.62
2018-09-01T09:44:12.539Z,45.72
2018-09-01T09:44:57.904Z,44.24
2018-09-01T09:45:57.935Z,48.08
2018-09-01T09:46:57.968Z,50.57
2018-09-01T09:47:57.738Z,52.1
2018-09-01T09:48:58.031Z,52.24
2018-09-01T09:49:58.055Z,51.68
2018-09-01T09:50:58.083Z,51.01
2018-09-01T09:51:58.118Z,50.84
2018-09-01T09:52:57.923Z,51.04
2018-09-01T09:54:57.946Z,48.85
2018-09-01T09:55:58.235Z,47.33
2018-09-01T09:56:58.262Z,46.41
2018-09-01T09:57:58.034Z,45.26
2018-09-01T09:59:12.984Z,45.77
2018-09-01T09:59:58.352Z,46.94
2018-09-01T10:00:58.150Z,47.08
2018-09-01T10:01:58.413Z,46.72
2018-09-01T10:02:58.441Z,46.72
2018-09-01T10:03:58.481Z,47.2
2018-09-01T10:04:58.242Z,46.81
2018-09-01T10:06:58.561Z,47.3
2018-09-01T10:07:58.590Z,47.57
2018-09-01T10:08:58.620Z,47.91
2018-09-01T10:09:58.393Z,47.45
2018-09-01T10:10:58.760Z,46.28
2018-09-01T10:11:58.709Z,47.45
2018-09-01T10:12:58.738Z,47.33
2018-09-01T10:13:58.770Z,47.52
2018-09-01T10:14:58.797Z,47.91
2018-09-01T10:15:59.214Z,48.27
2018-09-01T10:16:58.602Z,48.95
2018-09-01T10:17:58.886Z,49.58
2018-09-01T10:18:58.913Z,49.87
2018-09-01T10:19:59.010Z,49.85
2018-09-01T10:20:58.979Z,50.04
2018-09-01T10:21:58.746Z,50.14
2018-09-01T10:22:59.131Z,50.04
2018-09-01T10:23:59.064Z,49.56
2018-09-01T10:24:59.091Z,49.46
2018-09-01T10:25:59.119Z,49.87
2018-09-01T10:27:59.176Z,51.76
2018-09-01T10:28:59.202Z,52.09
2018-09-01T10:29:59.231Z,52.7
2018-09-01T10:31:13.923Z,52.8
2018-09-01T10:31:59.290Z,52.24
2018-09-01T10:32:59.064Z,51.18
2018-09-01T10:33:59.367Z,50.26
2018-09-01T10:34:59.373Z,50.16
2018-09-01T10:35:59.402Z,50.52
2018-09-01T10:36:59.435Z,50.62
2018-09-01T10:37:59.201Z,50.07
2018-09-01T10:38:59.494Z,49.39
2018-09-01T10:41:59.570Z,50.35
2018-09-01T10:42:59.598Z,51.5
2018-09-01T10:43:59.630Z,53.02
2018-09-01T10:44:59.663Z,52.99
2018-09-01T10:45:59.424Z,53.59
2018-09-01T10:47:14.374Z,54.25
2018-09-01T10:47:59.927Z,53.96
2018-09-01T10:48:59.765Z,54.13
2018-09-01T10:49:59.794Z,53.55
2018-09-01T10:50:59.567Z,52.99
2018-09-01T10:51:59.592Z,52.82
2018-09-01T10:52:59.879Z,53.11
2018-09-01T10:53:59.908Z,54.41
2018-09-01T10:54:59.934Z,55.45
2018-09-01T10:55:59.959Z,55.93
2018-09-01T10:58:00.017Z,57.35
2018-09-01T10:59:00.425Z,56.39
2018-09-01T11:00:00.071Z,56.84
2018-09-01T11:01:00.100Z,57.04
2018-09-01T11:02:00.127Z,56.84
2018-09-01T11:03:14.835Z,56.68
2018-09-01T11:04:00.178Z,56
2018-09-01T11:05:00.248Z,55.33
2018-09-01T11:06:00.235Z,55.13
2018-09-01T11:07:00.261Z,55.52
2018-09-01T11:08:00.030Z,55.52
2018-09-01T11:09:00.313Z,55.13
2018-09-01T11:10:00.351Z,55.42
2018-09-01T11:12:00.397Z,52.84
2018-09-01T11:13:00.422Z,52.55
2018-09-01T11:14:00.448Z,51.78
2018-09-01T11:15:00.473Z,52.09
2018-09-01T11:16:00.501Z,50.55
2018-09-01T11:17:00.527Z,50.16
2018-09-01T11:18:00.584Z,50.18
2018-09-01T11:19:15.243Z,50.6
2018-09-01T11:20:00.647Z,50.4
2018-09-01T11:21:00.858Z,49.63
2018-09-01T11:22:00.403Z,48.86
2018-09-01T11:23:00.691Z,48.95
2018-09-01T11:24:00.716Z,49.73
2018-09-01T11:25:00.844Z,48.57
2018-09-01T11:26:00.774Z,48.37
2018-09-01T11:28:00.902Z,48.01
2018-09-01T11:29:00.849Z,47.91
2018-09-01T11:30:00.878Z,47.74
2018-09-01T11:31:00.646Z,47.16
2018-09-01T11:32:00.672Z,46.94
2018-09-01T11:33:00.699Z,47.26
2018-09-01T11:34:15.646Z,47.24
2018-09-01T11:35:00.753Z,47.33
2018-09-01T11:37:01.067Z,46.75
2018-09-01T11:38:01.101Z,46.58
2018-09-01T11:39:01.123Z,46.22
2018-09-01T11:40:01.146Z,45.47
2018-09-01T11:41:01.172Z,45.85
2018-09-01T11:42:01.201Z,45.75
2018-09-01T11:43:01.809Z,45.17
2018-09-01T11:46:01.313Z,45.81
2018-09-01T11:47:01.334Z,46.29
2018-09-01T11:48:01.364Z,46.97
2018-09-01T11:49:01.389Z,45.9
2018-09-01T11:50:01.581Z,46.19
2018-09-01T11:51:01.443Z,46.19
2018-09-01T11:52:01.599Z,46.87
2018-09-01T11:53:01.274Z,47.52
2018-09-01T11:54:01.266Z,48.64
2018-09-01T11:55:01.556Z,49.02
2018-09-01T11:56:01.321Z,48.54
2018-09-01T11:57:01.346Z,49.22
2018-09-01T11:58:01.632Z,47.99
2018-09-01T11:59:01.658Z,48.37
2018-09-01T12:00:01.688Z,48.18
2018-09-01T12:01:01.739Z,47.5
2018-09-01T12:02:01.753Z,47.33
2018-09-01T12:03:01.764Z,47.33
2018-09-01T12:04:01.538Z,47.79
2018-09-01T12:05:01.818Z,47.14
2018-09-01T12:06:16.511Z,46.56
2018-09-01T12:07:01.894Z,46.77
2018-09-01T12:08:01.641Z,46.19
2018-09-01T12:09:02.227Z,45.9
2018-09-01T12:10:01.957Z,45.64
2018-09-01T12:11:01.978Z,46.12
2018-09-01T12:12:02.047Z,45.83
2018-09-01T12:13:02.042Z,45.92
2018-09-01T12:14:02.108Z,45.56
2018-09-01T12:17:02.138Z,46.87
2018-09-01T12:18:01.910Z,47.19
2018-09-01T12:19:02.192Z,46.41
2018-09-01T12:20:02.224Z,46.12
2018-09-01T12:21:02.243Z,46.8
2018-09-01T12:22:16.958Z,46.7
2018-09-01T12:23:02.351Z,47.09
2018-09-01T12:24:02.331Z,46.77
2018-09-01T12:25:02.360Z,46.97
2018-09-01T12:26:02.380Z,46.97
2018-09-01T12:27:02.406Z,46.8
2018-09-01T12:28:02.475Z,46.89
2018-09-01T12:31:02.254Z,48.11
2018-09-01T12:32:02.547Z,48.66
2018-09-01T12:33:02.565Z,48.95
2018-09-01T12:34:02.596Z,49.34
2018-09-01T12:35:02.618Z,49.41
2018-09-01T12:36:02.646Z,48.83
2018-09-01T12:37:02.672Z,48.76
2018-09-01T12:38:17.361Z,48.95
2018-09-01T12:39:02.729Z,48.76
2018-09-01T12:40:02.756Z,47.43
2018-09-01T12:41:02.521Z,47.33
2018-09-01T12:42:02.980Z,47.24
2018-09-01T12:43:02.833Z,46.94
2018-09-01T12:44:02.601Z,47.06
2018-09-01T12:45:02.889Z,46
2018-09-01T12:46:02.956Z,45.9
2018-09-01T12:48:02.964Z,45.61
2018-09-01T12:49:02.997Z,45.22
2018-09-01T12:50:03.019Z,45.42
2018-09-01T12:51:03.054Z,45.22
2018-09-01T12:52:03.074Z,44.84
2018-09-01T12:53:02.857Z,44.86
2018-09-01T12:54:17.786Z,45.22
2018-09-01T12:55:03.153Z,45.81
2018-09-01T12:56:03.176Z,47.14
2018-09-01T12:57:03.204Z,47.81
2018-09-01T12:58:03.233Z,48.32
2018-09-01T12:59:03.257Z,49.19
2018-09-01T13:00:03.282Z,50.43
2018-09-01T13:01:03.312Z,50.31
2018-09-01T13:03:03.367Z,51.18
2018-09-01T13:04:03.390Z,50.98
2018-09-01T13:05:03.423Z,50.79
2018-09-01T13:06:03.444Z,50.21
2018-09-01T13:07:03.470Z,49.95
2018-09-01T13:09:18.191Z,49.95
2018-09-01T13:10:03.550Z,49.37
2018-09-01T13:11:03.578Z,49.58
2018-09-01T13:12:03.614Z,50.07
2018-09-01T13:13:03.373Z,49.95
2018-09-01T13:14:03.660Z,50.14
2018-09-01T13:15:03.423Z,50.07
2018-09-01T13:17:03.743Z,49.87
2018-09-01T13:19:03.789Z,49.77
2018-09-01T13:20:03.818Z,49.12
2018-09-01T13:21:03.584Z,48.81
2018-09-01T13:22:03.608Z,48.81
2018-09-01T13:23:03.896Z,49
2018-09-01T13:24:03.666Z,49.27
2018-09-01T13:25:03.949Z,48.9
2018-09-01T13:26:03.977Z,48.71
2018-09-01T13:27:04.006Z,48.44
2018-09-01T13:28:04.029Z,49.29
2018-09-01T13:29:04.056Z,49.19
2018-09-01T13:30:03.823Z,49.58
2018-09-01T13:31:04.107Z,48.9
2018-09-01T13:32:03.877Z,49.58
2018-09-01T13:33:03.903Z,49.58
2018-09-01T13:34:03.930Z,50.16
2018-09-01T13:36:03.989Z,50.62
2018-09-01T13:37:04.011Z,50.16
2018-09-01T13:38:04.041Z,49.68
2018-09-01T13:39:04.139Z,48.25
2018-09-01T13:40:04.418Z,47.38
2018-09-01T13:41:19.036Z,46.51
2018-09-01T13:42:04.141Z,46.51
2018-09-01T13:43:04.426Z,46.99
2018-09-01T13:44:04.454Z,46.22
2018-09-01T13:45:04.221Z,46.31
2018-09-01T13:47:04.276Z,46.22
2018-09-01T13:48:04.300Z,45.75
2018-09-01T13:49:04.328Z,45.47
2018-09-01T13:50:04.355Z,44.88
2018-09-01T13:51:04.649Z,43.82
2018-09-01T13:52:04.407Z,44.32